sensor_id;sensor_type;location;lat;lon;timestamp;pressure;altitude;pressure_sealevel;temperature;humidity
22830;BME280;11581;51.250;6.778;2023-04-08T00:00:34;101768.88;;;12.40;80.12
22830;BME280;11581;51.250;6.778;2023-04-08T00:03:02;101766.19;;;12.40;80.14
22830;BME280;11581;51.250;6.778;2023-04-08T00:05:28;101775.91;;;12.41;80.07
22830;BME280;11581;51.250;6.778;2023-04-08T00:07:55;101777.59;;;12.42;80.41
22830;BME280;11581;51.250;6.778;2023-04-08T00:10:21;101712.28;;;12.05;80.18
22830;BME280;11581;51.250;6.778;2023-04-08T00:12:49;101750.94;;;12.31;80.18
22830;BME280;11581;51.250;6.778;2023-04-08T00:15:15;101714.69;;;12.08;80.10
22830;BME280;11581;51.250;6.778;2023-04-08T00:17:42;101773.69;;;12.46;80.07
22830;BME280;11581;51.250;6.778;2023-04-08T00:20:09;101773.69;;;12.46;80.17
22830;BME280;11581;51.250;6.778;2023-04-08T00:22:36;101771.72;;;12.48;80.24
22830;BME280;11581;51.250;6.778;2023-04-08T00:25:03;101770.72;;;12.49;80.29
22830;BME280;11581;51.250;6.778;2023-04-08T00:27:31;101768.47;;;12.44;80.14
22830;BME280;11581;51.250;6.778;2023-04-08T00:29:58;101776.66;;;12.52;79.99
22830;BME280;11581;51.250;6.778;2023-04-08T00:32:26;101776.66;;;12.52;80.01
22830;BME280;11581;51.250;6.778;2023-04-08T00:34:53;101700.59;;;12.06;79.99
22830;BME280;11581;51.250;6.778;2023-04-08T00:37:20;101778.19;;;12.55;79.98
22830;BME280;11581;51.250;6.778;2023-04-08T00:39:47;101778.19;;;12.55;79.99
22830;BME280;11581;51.250;6.778;2023-04-08T00:42:14;101781.59;;;12.57;80.16
22830;BME280;11581;51.250;6.778;2023-04-08T00:44:40;101783.28;;;12.58;79.75
22830;BME280;11581;51.250;6.778;2023-04-08T00:47:11;101785.00;;;12.59;79.33
22830;BME280;11581;51.250;6.778;2023-04-08T00:49:37;101730.09;;;12.25;79.74
22830;BME280;11581;51.250;6.778;2023-04-08T00:52:04;101782.19;;;12.60;79.73
22830;BME280;11581;51.250;6.778;2023-04-08T00:54:31;101787.69;;;12.59;79.67
22830;BME280;11581;51.250;6.778;2023-04-08T00:56:57;101786.69;;;12.60;79.79
22830;BME280;11581;51.250;6.778;2023-04-08T00:59:25;101739.53;;;12.29;79.96
22830;BME280;11581;51.250;6.778;2023-04-08T01:05:01;101789.22;;;12.61;79.07
22830;BME280;11581;51.250;6.778;2023-04-08T01:07:45;101795.13;;;12.65;78.93
22830;BME280;11581;51.250;6.778;2023-04-08T01:10:20;101796.13;;;12.64;78.90
22830;BME280;11581;51.250;6.778;2023-04-08T01:12:55;101797.13;;;12.63;78.72
22830;BME280;11581;51.250;6.778;2023-04-08T01:15:23;101793.72;;;12.61;79.26
22830;BME280;11581;51.250;6.778;2023-04-08T01:17:55;101786.81;;;12.58;79.01
22830;BME280;11581;51.250;6.778;2023-04-08T01:20:26;101777.91;;;12.48;78.81
22830;BME280;11581;51.250;6.778;2023-04-08T01:25:33;101736.97;;;12.18;78.79
22830;BME280;11581;51.250;6.778;2023-04-08T01:28:04;101797.06;;;12.53;79.23
22830;BME280;11581;51.250;6.778;2023-04-08T01:30:33;101768.56;;;12.33;79.64
22830;BME280;11581;51.250;6.778;2023-04-08T01:33:01;101794.53;;;12.52;79.69
22830;BME280;11581;51.250;6.778;2023-04-08T01:35:29;101805.22;;;12.52;79.50
22830;BME280;11581;51.250;6.778;2023-04-08T01:37:57;101782.78;;;12.34;79.75
22830;BME280;11581;51.250;6.778;2023-04-08T01:40:24;101803.94;;;12.46;79.83
22830;BME280;11581;51.250;6.778;2023-04-08T01:42:54;101796.50;;;12.50;79.29
22830;BME280;11581;51.250;6.778;2023-04-08T01:45:22;101754.69;;;12.19;79.68
22830;BME280;11581;51.250;6.778;2023-04-08T01:47:50;101798.34;;;12.49;79.95
22830;BME280;11581;51.250;6.778;2023-04-08T01:50:18;101799.88;;;12.52;80.05
22830;BME280;11581;51.250;6.778;2023-04-08T01:52:47;101798.06;;;12.52;80.05
22830;BME280;11581;51.250;6.778;2023-04-08T01:55:15;101744.53;;;12.13;80.04
22830;BME280;11581;51.250;6.778;2023-04-08T01:57:47;101815.66;;;12.55;79.57
22830;BME280;11581;51.250;6.778;2023-04-08T02:00:18;101772.22;;;12.32;79.58
22830;BME280;11581;51.250;6.778;2023-04-08T02:02:46;101782.41;;;12.48;80.00
22830;BME280;11581;51.250;6.778;2023-04-08T02:05:13;101806.41;;;12.59;79.91
22830;BME280;11581;51.250;6.778;2023-04-08T02:07:40;101803.75;;;12.59;79.87
22830;BME280;11581;51.250;6.778;2023-04-08T02:10:07;101799.63;;;12.55;80.00
22830;BME280;11581;51.250;6.778;2023-04-08T02:12:33;101803.59;;;12.60;79.96
22830;BME280;11581;51.250;6.778;2023-04-08T02:15:01;101802.75;;;12.60;79.96
22830;BME280;11581;51.250;6.778;2023-04-08T02:17:34;101635.91;;;11.61;78.96
22830;BME280;11581;51.250;6.778;2023-04-08T02:20:06;101810.38;;;12.64;79.16
22830;BME280;11581;51.250;6.778;2023-04-08T02:22:38;101812.91;;;12.66;79.34
22830;BME280;11581;51.250;6.778;2023-04-08T02:25:08;101812.06;;;12.65;79.76
22830;BME280;11581;51.250;6.778;2023-04-08T02:27:38;101729.94;;;12.17;79.75
22830;BME280;11581;51.250;6.778;2023-04-08T02:30:06;101804.75;;;12.67;79.76
22830;BME280;11581;51.250;6.778;2023-04-08T02:32:33;101811.66;;;12.70;79.69
22830;BME280;11581;51.250;6.778;2023-04-08T02:35:00;101810.66;;;12.71;79.60
22830;BME280;11581;51.250;6.778;2023-04-08T02:37:29;101816.00;;;12.71;79.45
22830;BME280;11581;51.250;6.778;2023-04-08T02:39:56;101816.88;;;12.71;79.57
22830;BME280;11581;51.250;6.778;2023-04-08T02:42:22;101813.34;;;12.71;79.56
22830;BME280;11581;51.250;6.778;2023-04-08T02:44:51;101812.38;;;12.72;79.67
22830;BME280;11581;51.250;6.778;2023-04-08T02:47:17;101815.06;;;12.72;79.63
22830;BME280;11581;51.250;6.778;2023-04-08T02:49:44;101815.88;;;12.72;79.63
22830;BME280;11581;51.250;6.778;2023-04-08T02:52:11;101800.50;;;12.65;79.25
22830;BME280;11581;51.250;6.778;2023-04-08T02:54:37;101806.16;;;12.71;79.48
22830;BME280;11581;51.250;6.778;2023-04-08T02:57:04;101818.69;;;12.71;79.31
22830;BME280;11581;51.250;6.778;2023-04-08T02:59:30;101822.22;;;12.71;79.30
22830;BME280;11581;51.250;6.778;2023-04-08T03:01:56;101823.34;;;12.69;79.42
22830;BME280;11581;51.250;6.778;2023-04-08T03:04:23;101824.19;;;12.69;79.39
22830;BME280;11581;51.250;6.778;2023-04-08T03:06:49;101825.03;;;12.70;79.33
22830;BME280;11581;51.250;6.778;2023-04-08T03:09:16;101765.75;;;12.35;79.53
22830;BME280;11581;51.250;6.778;2023-04-08T03:11:42;101823.34;;;12.69;79.49
22830;BME280;11581;51.250;6.778;2023-04-08T03:14:09;101816.00;;;12.71;79.93
22830;BME280;11581;51.250;6.778;2023-04-08T03:16:35;101824.78;;;12.73;79.81
22830;BME280;11581;51.250;6.778;2023-04-08T03:19:01;101837.16;;;12.74;79.45
22830;BME280;11581;51.250;6.778;2023-04-08T03:21:28;101829.13;;;12.74;79.57
22830;BME280;11581;51.250;6.778;2023-04-08T03:23:55;101821.97;;;12.74;79.46
22830;BME280;11581;51.250;6.778;2023-04-08T03:26:22;101820.81;;;12.77;79.45
22830;BME280;11581;51.250;6.778;2023-04-08T03:28:48;101827.03;;;12.77;79.75
22830;BME280;11581;51.250;6.778;2023-04-08T03:31:15;101827.72;;;12.79;79.40
22830;BME280;11581;51.250;6.778;2023-04-08T03:33:41;101824.91;;;12.81;79.37
22830;BME280;11581;51.250;6.778;2023-04-08T03:36:08;101783.28;;;12.58;79.19
22830;BME280;11581;51.250;6.778;2023-04-08T03:38:35;101828.31;;;12.83;78.98
22830;BME280;11581;51.250;6.778;2023-04-08T03:41:01;101792.59;;;12.63;78.73
22830;BME280;11581;51.250;6.778;2023-04-08T03:43:27;101751.09;;;12.39;78.57
22830;BME280;11581;51.250;6.778;2023-04-08T03:45:55;101824.50;;;12.85;78.52
22830;BME280;11581;51.250;6.778;2023-04-08T03:48:21;101773.25;;;12.50;78.08
22830;BME280;11581;51.250;6.778;2023-04-08T03:50:48;101828.47;;;12.81;78.09
22830;BME280;11581;51.250;6.778;2023-04-08T03:53:14;101834.81;;;12.80;78.02
22830;BME280;11581;51.250;6.778;2023-04-08T03:55:41;101829.59;;;12.79;78.07
22830;BME280;11581;51.250;6.778;2023-04-08T03:58:07;101748.69;;;12.26;78.12
22830;BME280;11581;51.250;6.778;2023-04-08T04:00:34;101828.31;;;12.73;78.13
22830;BME280;11581;51.250;6.778;2023-04-08T04:03:00;101835.47;;;12.73;78.24
22830;BME280;11581;51.250;6.778;2023-04-08T04:05:27;101792.00;;;12.50;78.21
22830;BME280;11581;51.250;6.778;2023-04-08T04:07:54;101839.16;;;12.72;78.20
22830;BME280;11581;51.250;6.778;2023-04-08T04:10:22;101832.06;;;12.71;77.76
22830;BME280;11581;51.250;6.778;2023-04-08T04:12:49;101846.81;;;12.56;77.92
22830;BME280;11581;51.250;6.778;2023-04-08T04:15:15;101844.19;;;12.65;78.02
22830;BME280;11581;51.250;6.778;2023-04-08T04:17:42;101847.84;;;12.64;78.17
22830;BME280;11581;51.250;6.778;2023-04-08T04:20:08;101848.94;;;12.62;78.04
22830;BME280;11581;51.250;6.778;2023-04-08T04:22:35;101843.44;;;12.54;78.08
22830;BME280;11581;51.250;6.778;2023-04-08T04:25:01;101922.06;;;12.42;77.84
22830;BME280;11581;51.250;6.778;2023-04-08T04:27:28;101859.22;;;12.57;78.15
22830;BME280;11581;51.250;6.778;2023-04-08T04:29:54;101861.16;;;12.55;78.30
22830;BME280;11581;51.250;6.778;2023-04-08T04:32:21;101863.00;;;12.54;78.18
22830;BME280;11581;51.250;6.778;2023-04-08T04:34:47;101825.13;;;12.29;77.90
22830;BME280;11581;51.250;6.778;2023-04-08T04:37:14;101873.13;;;12.51;77.88
22830;BME280;11581;51.250;6.778;2023-04-08T04:39:40;101872.53;;;12.47;77.88
22830;BME280;11581;51.250;6.778;2023-04-08T04:42:06;101879.00;;;12.45;77.94
22830;BME280;11581;51.250;6.778;2023-04-08T04:44:33;101841.13;;;12.19;77.85
22830;BME280;11581;51.250;6.778;2023-04-08T04:46:59;101875.03;;;12.39;78.31
22830;BME280;11581;51.250;6.778;2023-04-08T04:49:26;101881.25;;;12.40;78.51
22830;BME280;11581;51.250;6.778;2023-04-08T04:51:52;101882.94;;;12.41;78.50
22830;BME280;11581;51.250;6.778;2023-04-08T04:54:19;101880.97;;;12.43;78.80
22830;BME280;11581;51.250;6.778;2023-04-08T04:56:45;101882.66;;;12.44;78.48
22830;BME280;11581;51.250;6.778;2023-04-08T04:59:12;101879.84;;;12.45;78.29
22830;BME280;11581;51.250;6.778;2023-04-08T05:01:38;101874.44;;;12.36;77.89
22830;BME280;11581;51.250;6.778;2023-04-08T05:04:05;101881.53;;;12.46;78.03
22830;BME280;11581;51.250;6.778;2023-04-08T05:06:32;101879.72;;;12.47;77.66
22830;BME280;11581;51.250;6.778;2023-04-08T05:08:59;101884.94;;;12.48;78.02
22830;BME280;11581;51.250;6.778;2023-04-08T05:11:25;101876.78;;;12.50;78.20
22830;BME280;11581;51.250;6.778;2023-04-08T05:13:52;101885.50;;;12.52;78.08
22830;BME280;11581;51.250;6.778;2023-04-08T05:16:18;101881.03;;;12.52;77.77
22830;BME280;11581;51.250;6.778;2023-04-08T05:18:45;101866.00;;;12.40;78.02
22830;BME280;11581;51.250;6.778;2023-04-08T05:21:11;101890.59;;;12.55;77.82
22830;BME280;11581;51.250;6.778;2023-04-08T05:23:37;101880.44;;;12.49;77.84
22830;BME280;11581;51.250;6.778;2023-04-08T05:26:07;101882.00;;;12.51;77.18
22830;BME280;11581;51.250;6.778;2023-04-08T05:28:34;101899.63;;;12.54;77.92
22830;BME280;11581;51.250;6.778;2023-04-08T05:31:00;101894.13;;;12.55;78.33
22830;BME280;11581;51.250;6.778;2023-04-08T05:33:27;101900.22;;;12.57;78.35
22830;BME280;11581;51.250;6.778;2023-04-08T05:35:53;101902.75;;;12.59;78.60
22830;BME280;11581;51.250;6.778;2023-04-08T05:38:20;101904.72;;;12.57;78.55
22830;BME280;11581;51.250;6.778;2023-04-08T05:40:46;101894.94;;;12.46;78.27
22830;BME280;11581;51.250;6.778;2023-04-08T05:43:13;101918.25;;;12.65;78.51
22830;BME280;11581;51.250;6.778;2023-04-08T05:45:40;101922.66;;;12.66;78.44
22830;BME280;11581;51.250;6.778;2023-04-08T05:48:06;101919.72;;;12.69;78.24
22830;BME280;11581;51.250;6.778;2023-04-08T05:50:34;101919.59;;;12.70;78.25
22830;BME280;11581;51.250;6.778;2023-04-08T05:53:00;101921.88;;;12.75;78.43
22830;BME280;11581;51.250;6.778;2023-04-08T05:55:27;101929.72;;;12.76;78.36
22830;BME280;11581;51.250;6.778;2023-04-08T05:57:55;101936.66;;;12.79;78.31
22830;BME280;11581;51.250;6.778;2023-04-08T06:00:21;101937.38;;;12.81;78.08
22830;BME280;11581;51.250;6.778;2023-04-08T06:02:48;101930.06;;;12.83;77.94
22830;BME280;11581;51.250;6.778;2023-04-08T06:05:14;101886.97;;;12.56;78.06
22830;BME280;11581;51.250;6.778;2023-04-08T06:07:41;101933.34;;;12.86;78.35
22830;BME280;11581;51.250;6.778;2023-04-08T06:10:07;101932.22;;;12.89;78.33
22830;BME280;11581;51.250;6.778;2023-04-08T06:12:37;101706.78;;;11.56;77.99
22830;BME280;11581;51.250;6.778;2023-04-08T06:15:08;101894.63;;;12.70;78.05
22830;BME280;11581;51.250;6.778;2023-04-08T06:17:35;101936.75;;;12.98;78.00
22830;BME280;11581;51.250;6.778;2023-04-08T06:20:03;101940.16;;;13.00;78.23
22830;BME280;11581;51.250;6.778;2023-04-08T06:22:30;101942.72;;;13.01;78.04
22830;BME280;11581;51.250;6.778;2023-04-08T06:24:57;101945.75;;;12.97;78.30
22830;BME280;11581;51.250;6.778;2023-04-08T06:27:23;101946.66;;;13.07;78.45
22830;BME280;11581;51.250;6.778;2023-04-08T06:29:50;101909.56;;;12.72;78.62
22830;BME280;11581;51.250;6.778;2023-04-08T06:32:17;101956.59;;;13.16;78.74
22830;BME280;11581;51.250;6.778;2023-04-08T06:34:44;101958.88;;;13.20;78.56
22830;BME280;11581;51.250;6.778;2023-04-08T06:37:10;101903.31;;;12.92;78.39
22830;BME280;11581;51.250;6.778;2023-04-08T06:39:37;101766.72;;;12.04;78.29
22830;BME280;11581;51.250;6.778;2023-04-08T06:42:03;101917.41;;;13.15;78.55
22830;BME280;11581;51.250;6.778;2023-04-08T06:44:50;101954.69;;;13.37;78.17
22830;BME280;11581;51.250;6.778;2023-04-08T06:47:17;101964.59;;;13.46;77.81
22830;BME280;11581;51.250;6.778;2023-04-08T06:49:43;101967.97;;;13.48;77.68
22830;BME280;11581;51.250;6.778;2023-04-08T06:52:10;101947.34;;;13.39;77.14
22830;BME280;11581;51.250;6.778;2023-04-08T06:54:37;101968.84;;;13.48;76.89
22830;BME280;11581;51.250;6.778;2023-04-08T06:57:03;101886.34;;;13.03;76.50
22830;BME280;11581;51.250;6.778;2023-04-08T06:59:30;101977.00;;;13.47;76.10
22830;BME280;11581;51.250;6.778;2023-04-08T07:01:56;101727.47;;;11.84;76.13
22830;BME280;11581;51.250;6.778;2023-04-08T07:04:22;101976.56;;;13.42;76.41
22830;BME280;11581;51.250;6.778;2023-04-08T07:06:49;101986.44;;;13.41;76.63
22830;BME280;11581;51.250;6.778;2023-04-08T07:09:15;101869.03;;;12.47;76.81
22830;BME280;11581;51.250;6.778;2023-04-08T07:11:42;101955.50;;;13.28;76.86
22830;BME280;11581;51.250;6.778;2023-04-08T07:14:08;101984.31;;;13.45;76.97
22830;BME280;11581;51.250;6.778;2023-04-08T07:16:35;101973.34;;;13.48;76.94
22830;BME280;11581;51.250;6.778;2023-04-08T07:19:01;101818.47;;;12.53;77.16
22830;BME280;11581;51.250;6.778;2023-04-08T07:21:28;101986.91;;;13.56;77.57
22830;BME280;11581;51.250;6.778;2023-04-08T07:23:55;101957.53;;;13.45;78.24
22830;BME280;11581;51.250;6.778;2023-04-08T07:26:21;101983.69;;;13.72;78.82
22830;BME280;11581;51.250;6.778;2023-04-08T07:28:48;101994.16;;;13.84;79.08
22830;BME280;11581;51.250;6.778;2023-04-08T07:31:16;101982.47;;;13.85;78.51
22830;BME280;11581;51.250;6.778;2023-04-08T07:33:44;102001.94;;;14.06;77.96
22830;BME280;11581;51.250;6.778;2023-04-08T07:36:11;102002.78;;;14.16;77.66
22830;BME280;11581;51.250;6.778;2023-04-08T07:38:38;102007.59;;;14.22;76.99
22830;BME280;11581;51.250;6.778;2023-04-08T07:41:05;101849.75;;;13.32;76.07
22830;BME280;11581;51.250;6.778;2023-04-08T07:43:31;101968.91;;;13.96;75.86
22830;BME280;11581;51.250;6.778;2023-04-08T07:46:02;101917.50;;;13.63;74.19
22830;BME280;11581;51.250;6.778;2023-04-08T07:48:32;102018.94;;;14.26;74.25
22830;BME280;11581;51.250;6.778;2023-04-08T07:51:07;102024.47;;;14.24;72.88
22830;BME280;11581;51.250;6.778;2023-04-08T07:53:35;102027.13;;;14.24;75.59
22830;BME280;11581;51.250;6.778;2023-04-08T07:56:01;102023.59;;;14.24;75.74
22830;BME280;11581;51.250;6.778;2023-04-08T07:58:29;102007.75;;;14.11;75.47
22830;BME280;11581;51.250;6.778;2023-04-08T08:00:56;102031.50;;;14.25;75.08
22830;BME280;11581;51.250;6.778;2023-04-08T08:03:22;102025.69;;;14.20;74.91
22830;BME280;11581;51.250;6.778;2023-04-08T08:05:49;102009.31;;;14.04;75.25
22830;BME280;11581;51.250;6.778;2023-04-08T08:08:15;102036.00;;;14.15;75.10
22830;BME280;11581;51.250;6.778;2023-04-08T08:10:42;102020.03;;;14.04;75.61
22830;BME280;11581;51.250;6.778;2023-04-08T08:13:08;101998.81;;;13.82;75.54
22830;BME280;11581;51.250;6.778;2023-04-08T08:15:36;102048.53;;;14.15;75.63
22830;BME280;11581;51.250;6.778;2023-04-08T08:18:03;101988.66;;;13.76;75.61
22830;BME280;11581;51.250;6.778;2023-04-08T08:20:29;102052.81;;;14.17;75.78
22830;BME280;11581;51.250;6.778;2023-04-08T08:22:55;102050.81;;;14.19;76.16
22830;BME280;11581;51.250;6.778;2023-04-08T08:25:22;102057.63;;;14.23;76.04
22830;BME280;11581;51.250;6.778;2023-04-08T08:27:48;102038.41;;;14.18;75.75
22830;BME280;11581;51.250;6.778;2023-04-08T08:30:15;102012.69;;;14.06;75.79
22830;BME280;11581;51.250;6.778;2023-04-08T08:32:43;101968.34;;;13.83;75.51
22830;BME280;11581;51.250;6.778;2023-04-08T08:35:11;102102.31;;;14.43;75.35
22830;BME280;11581;51.250;6.778;2023-04-08T08:37:37;102073.19;;;14.48;75.03
22830;BME280;11581;51.250;6.778;2023-04-08T08:40:04;102067.53;;;14.51;74.52
22830;BME280;11581;51.250;6.778;2023-04-08T08:42:31;102004.50;;;14.08;74.26
22830;BME280;11581;51.250;6.778;2023-04-08T08:45:01;102061.03;;;14.44;72.98
22830;BME280;11581;51.250;6.778;2023-04-08T08:47:28;102047.78;;;14.33;73.90
22830;BME280;11581;51.250;6.778;2023-04-08T08:49:55;102058.22;;;14.46;73.85
22830;BME280;11581;51.250;6.778;2023-04-08T08:52:22;102062.03;;;14.43;73.96
22830;BME280;11581;51.250;6.778;2023-04-08T08:54:56;102059.63;;;14.40;71.54
22830;BME280;11581;51.250;6.778;2023-04-08T08:57:23;102035.19;;;14.24;74.00
22830;BME280;11581;51.250;6.778;2023-04-08T08:59:49;102015.66;;;14.13;74.03
22830;BME280;11581;51.250;6.778;2023-04-08T09:02:26;102044.03;;;14.15;71.13
22830;BME280;11581;51.250;6.778;2023-04-08T09:04:57;102070.50;;;14.39;72.11
22830;BME280;11581;51.250;6.778;2023-04-08T09:07:25;102074.03;;;14.39;73.49
22830;BME280;11581;51.250;6.778;2023-04-08T09:09:53;101948.13;;;13.60;73.92
22830;BME280;11581;51.250;6.778;2023-04-08T09:12:20;102076.56;;;14.41;74.26
22830;BME280;11581;51.250;6.778;2023-04-08T09:14:47;102044.94;;;14.25;74.23
22830;BME280;11581;51.250;6.778;2023-04-08T09:17:13;102050.00;;;14.28;73.85
22830;BME280;11581;51.250;6.778;2023-04-08T09:20:08;102082.81;;;14.51;70.91
22830;BME280;11581;51.250;6.778;2023-04-08T09:22:54;102070.53;;;14.58;72.33
22830;BME280;11581;51.250;6.778;2023-04-08T09:25:26;102041.00;;;14.39;72.12
22830;BME280;11581;51.250;6.778;2023-04-08T09:27:53;102037.31;;;14.40;73.18
22830;BME280;11581;51.250;6.778;2023-04-08T09:30:21;102046.50;;;14.37;72.62
22830;BME280;11581;51.250;6.778;2023-04-08T09:32:52;102087.47;;;14.58;72.80
22830;BME280;11581;51.250;6.778;2023-04-08T09:35:20;102095.50;;;14.58;72.73
22830;BME280;11581;51.250;6.778;2023-04-08T09:37:47;102096.50;;;14.57;72.93
22830;BME280;11581;51.250;6.778;2023-04-08T09:40:14;102056.78;;;14.32;73.24
22830;BME280;11581;51.250;6.778;2023-04-08T09:42:46;102084.91;;;14.57;72.11
22830;BME280;11581;51.250;6.778;2023-04-08T09:45:16;102073.63;;;14.53;74.34
22830;BME280;11581;51.250;6.778;2023-04-08T09:47:55;102101.72;;;14.87;71.67
22830;BME280;11581;51.250;6.778;2023-04-08T09:50:31;102103.41;;;15.07;72.87
22830;BME280;11581;51.250;6.778;2023-04-08T09:53:08;102103.06;;;15.29;70.60
22830;BME280;11581;51.250;6.778;2023-04-08T09:55:38;102111.06;;;15.58;75.46
22830;BME280;11581;51.250;6.778;2023-04-08T09:58:15;102105.41;;;15.88;71.44
22830;BME280;11581;51.250;6.778;2023-04-08T10:00:46;102104.03;;;16.29;74.70
22830;BME280;11581;51.250;6.778;2023-04-08T10:03:20;102097.22;;;16.69;75.16
22830;BME280;11581;51.250;6.778;2023-04-08T10:05:52;102103.44;;;17.05;71.79
22830;BME280;11581;51.250;6.778;2023-04-08T10:08:21;102096.38;;;17.29;70.72
22830;BME280;11581;51.250;6.778;2023-04-08T10:10:48;102091.94;;;17.46;69.31
22830;BME280;11581;51.250;6.778;2023-04-08T10:13:15;102040.22;;;17.25;68.32
22830;BME280;11581;51.250;6.778;2023-04-08T10:15:42;102056.88;;;17.46;67.97
22830;BME280;11581;51.250;6.778;2023-04-08T10:23:09;102094.69;;;17.96;66.35
22830;BME280;11581;51.250;6.778;2023-04-08T10:25:38;102029.31;;;17.68;66.00
22830;BME280;11581;51.250;6.778;2023-04-08T10:28:26;102095.63;;;18.20;60.19
22830;BME280;11581;51.250;6.778;2023-04-08T10:30:57;102088.25;;;18.30;64.34
22830;BME280;11581;51.250;6.778;2023-04-08T10:33:30;102087.63;;;18.44;61.58
22830;BME280;11581;51.250;6.778;2023-04-08T10:38:33;101961.97;;;18.24;67.98
22830;BME280;11581;51.250;6.778;2023-04-08T10:41:00;102101.97;;;19.49;68.28
22830;BME280;11581;51.250;6.778;2023-04-08T10:43:34;102097.56;;;19.94;60.59
22830;BME280;11581;51.250;6.778;2023-04-08T10:46:01;102089.09;;;20.36;64.12
22830;BME280;11581;51.250;6.778;2023-04-08T10:48:29;102092.59;;;20.67;62.57
22830;BME280;11581;51.250;6.778;2023-04-08T10:50:56;102088.53;;;20.86;60.84
22830;BME280;11581;51.250;6.778;2023-04-08T10:53:31;102087.41;;;21.03;54.37
22830;BME280;11581;51.250;6.778;2023-04-08T10:56:09;102086.22;;;21.34;57.17
22830;BME280;11581;51.250;6.778;2023-04-08T10:59:06;102075.66;;;21.98;59.90
22830;BME280;11581;51.250;6.778;2023-04-08T11:01:40;102085.94;;;22.73;58.87
22830;BME280;11581;51.250;6.778;2023-04-08T11:06:40;102069.41;;;24.32;59.99
22830;BME280;11581;51.250;6.778;2023-04-08T11:09:07;102066.16;;;25.02;59.47
22830;BME280;11581;51.250;6.778;2023-04-08T11:11:34;102070.50;;;25.55;55.48
22830;BME280;11581;51.250;6.778;2023-04-08T11:14:02;102038.69;;;25.73;50.17
22830;BME280;11581;51.250;6.778;2023-04-08T11:16:28;102067.38;;;26.15;49.82
22830;BME280;11581;51.250;6.778;2023-04-08T11:18:55;102057.66;;;26.19;47.73
22830;BME280;11581;51.250;6.778;2023-04-08T11:21:22;102057.03;;;26.17;46.81
22830;BME280;11581;51.250;6.778;2023-04-08T11:23:49;102021.00;;;25.89;46.98
22830;BME280;11581;51.250;6.778;2023-04-08T11:26:17;102028.97;;;25.90;46.64
22830;BME280;11581;51.250;6.778;2023-04-08T11:28:45;102029.97;;;26.09;48.11
22830;BME280;11581;51.250;6.778;2023-04-08T11:31:13;102050.63;;;26.36;48.91
22830;BME280;11581;51.250;6.778;2023-04-08T11:33:46;102050.50;;;26.56;43.15
22830;BME280;11581;51.250;6.778;2023-04-08T11:36:14;102051.25;;;26.69;46.07
22830;BME280;11581;51.250;6.778;2023-04-08T11:38:43;102057.19;;;26.66;43.57
22830;BME280;11581;51.250;6.778;2023-04-08T11:41:12;102078.94;;;26.48;41.64
22830;BME280;11581;51.250;6.778;2023-04-08T11:43:39;102048.00;;;26.17;41.75
22830;BME280;11581;51.250;6.778;2023-04-08T11:46:15;102042.91;;;25.76;39.98
22830;BME280;11581;51.250;6.778;2023-04-08T11:48:56;102043.00;;;25.24;36.14
22830;BME280;11581;51.250;6.778;2023-04-08T11:51:22;102064.44;;;25.01;38.82
22830;BME280;11581;51.250;6.778;2023-04-08T11:53:49;102068.59;;;24.58;38.79
22830;BME280;11581;51.250;6.778;2023-04-08T11:56:20;102069.53;;;24.05;35.96
22830;BME280;11581;51.250;6.778;2023-04-08T11:58:47;102035.03;;;23.43;39.33
22830;BME280;11581;51.250;6.778;2023-04-08T12:01:14;102046.84;;;23.02;40.26
22830;BME280;11581;51.250;6.778;2023-04-08T12:03:56;102009.66;;;22.39;39.10
22830;BME280;11581;51.250;6.778;2023-04-08T12:06:23;102043.94;;;22.19;41.41
22830;BME280;11581;51.250;6.778;2023-04-08T12:08:51;102083.78;;;22.12;41.81
22830;BME280;11581;51.250;6.778;2023-04-08T12:11:18;102084.03;;;21.81;42.76
22830;BME280;11581;51.250;6.778;2023-04-08T12:13:45;102082.78;;;21.55;42.23
22830;BME280;11581;51.250;6.778;2023-04-08T12:16:13;102076.97;;;21.29;42.54
22830;BME280;11581;51.250;6.778;2023-04-08T12:18:40;102086.19;;;21.05;43.46
22830;BME280;11581;51.250;6.778;2023-04-08T12:21:06;102010.72;;;20.27;43.44
22830;BME280;11581;51.250;6.778;2023-04-08T12:23:33;102077.41;;;20.58;43.24
22830;BME280;11581;51.250;6.778;2023-04-08T12:25:59;102081.13;;;20.35;43.86
22830;BME280;11581;51.250;6.778;2023-04-08T12:28:26;102087.66;;;20.10;43.79
22830;BME280;11581;51.250;6.778;2023-04-08T12:30:52;102075.66;;;19.73;44.75
22830;BME280;11581;51.250;6.778;2023-04-08T12:33:19;102099.72;;;19.60;44.48
22830;BME280;11581;51.250;6.778;2023-04-08T12:35:45;102092.19;;;19.32;44.95
22830;BME280;11581;51.250;6.778;2023-04-08T12:38:12;102104.00;;;19.15;45.29
22830;BME280;11581;51.250;6.778;2023-04-08T12:40:38;102013.84;;;18.44;45.86
22830;BME280;11581;51.250;6.778;2023-04-08T12:43:05;102079.69;;;18.67;46.27
22830;BME280;11581;51.250;6.778;2023-04-08T12:45:31;102103.34;;;18.65;46.69
22830;BME280;11581;51.250;6.778;2023-04-08T12:47:57;102060.38;;;18.30;47.09
22830;BME280;11581;51.250;6.778;2023-04-08T12:50:24;102100.59;;;18.41;47.38
22830;BME280;11581;51.250;6.778;2023-04-08T12:52:50;102091.59;;;18.32;48.43
22830;BME280;11581;51.250;6.778;2023-04-08T12:55:17;102092.25;;;18.26;48.37
22830;BME280;11581;51.250;6.778;2023-04-08T12:57:43;101981.72;;;17.51;48.61
22830;BME280;11581;51.250;6.778;2023-04-08T13:00:11;102092.22;;;18.10;49.14
22830;BME280;11581;51.250;6.778;2023-04-08T13:02:37;101993.16;;;17.45;49.83
22830;BME280;11581;51.250;6.778;2023-04-08T13:05:06;102093.94;;;18.19;50.19
22830;BME280;11581;51.250;6.778;2023-04-08T13:07:32;102096.47;;;18.21;50.08
22830;BME280;11581;51.250;6.778;2023-04-08T13:09:59;102092.59;;;18.23;50.41